createdAt,value
2023-03-13T00:01:26.105Z,98570.94
2023-03-13T00:05:29.086Z,98569.19
2023-03-13T00:09:32.508Z,98555.19
2023-03-13T00:13:35.659Z,98561.78
2023-03-13T00:17:39.684Z,98553.38
2023-03-13T00:21:43.018Z,98547.56
2023-03-13T00:25:46.452Z,98529.75
2023-03-13T00:29:50.831Z,98524.00
2023-03-13T00:33:56.280Z,98525.84
2023-03-13T00:37:59.282Z,98517.13
2023-03-13T00:42:03.996Z,98518.66
2023-03-13T00:46:08.084Z,98517.78
2023-03-13T00:50:12.855Z,98509.34
2023-03-13T00:54:17.472Z,98505.84
2023-03-13T00:58:21.230Z,98505.34
2023-03-13T01:02:24.072Z,98504.22
2023-03-13T01:06:32.560Z,98499.69
2023-03-13T01:10:36.227Z,98484.31
2023-03-13T01:14:39.332Z,98476.63
2023-03-13T01:18:44.901Z,98473.22
2023-03-13T01:22:49.389Z,98475.09
2023-03-13T01:26:55.581Z,98464.06
2023-03-13T01:30:58.611Z,98451.63
2023-03-13T01:35:01.510Z,98443.22
2023-03-13T01:39:06.735Z,98438.44
2023-03-13T01:43:27.177Z,98436.09
2023-03-13T01:47:30.910Z,98427.19
2023-03-13T01:51:35.625Z,98415.78
2023-03-13T01:55:41.013Z,98402.13
2023-03-13T01:59:49.723Z,98396.78
2023-03-13T02:03:53.549Z,98387.88
2023-03-13T02:07:57.152Z,98383.97
2023-03-13T02:12:06.157Z,98376.34
2023-03-13T02:16:12.317Z,98372.16
2023-03-13T02:20:17.112Z,98376.94
2023-03-13T02:24:25.867Z,98361.66
2023-03-13T02:28:34.019Z,98348.94
2023-03-13T02:32:40.841Z,98362.75
2023-03-13T02:36:44.407Z,98346.41
2023-03-13T02:40:52.958Z,98343.78
2023-03-13T02:44:57.233Z,98346.72
2023-03-13T02:49:00.343Z,98344.56
2023-03-13T02:53:06.501Z,98344.59
2023-03-13T02:57:15.746Z,98335.34
2023-03-13T03:01:20.858Z,98331.16
2023-03-13T03:05:24.519Z,98331.69
2023-03-13T03:09:27.561Z,98318.47
2023-03-13T03:18:04.913Z,98317.44
2023-03-13T03:22:07.760Z,98319.28
2023-03-13T03:26:10.550Z,98318.25
2023-03-13T03:30:14.607Z,98317.47
2023-03-13T03:34:19.221Z,98310.59
2023-03-13T03:38:22.372Z,98299.25
2023-03-13T03:42:25.317Z,98291.56
2023-03-13T03:46:28.853Z,98277.06
2023-03-13T03:50:33.394Z,98282.88
2023-03-13T03:54:36.200Z,98297.91
2023-03-13T03:58:39.749Z,98286.81
2023-03-13T04:02:43.325Z,98272.81
2023-03-13T04:06:50.598Z,98276.25
2023-03-13T04:10:53.556Z,98282.59
2023-03-13T04:14:56.532Z,98285.72
2023-03-13T04:18:59.464Z,98287.84
2023-03-13T04:23:07.096Z,98280.69
2023-03-13T04:27:09.951Z,98273.81
2023-03-13T04:31:12.889Z,98290.16
2023-03-13T04:35:16.210Z,98284.59
2023-03-13T04:39:20.946Z,98272.47
2023-03-13T04:43:23.828Z,98270.59
2023-03-13T04:47:26.855Z,98263.19
2023-03-13T04:51:33.213Z,98256.56
2023-03-13T04:55:37.820Z,98255.03
2023-03-13T04:59:43.619Z,98260.25
2023-03-13T05:03:47.333Z,98259.47
2023-03-13T05:07:50.119Z,98253.94
2023-03-13T05:11:56.522Z,98265.53
2023-03-13T05:16:00.945Z,98261.81
2023-03-13T05:20:07.094Z,98270.25
2023-03-13T05:24:11.082Z,98258.34
2023-03-13T05:28:15.660Z,98246.94
2023-03-13T05:32:21.496Z,98245.38
2023-03-13T05:36:24.565Z,98236.41
2023-03-13T05:40:27.533Z,98259.34
2023-03-13T05:44:32.334Z,98253.00
2023-03-13T05:48:35.263Z,98241.88
2023-03-13T05:52:38.622Z,98250.00
2023-03-13T05:56:41.559Z,98244.50
2023-03-13T06:00:45.758Z,98240.75
2023-03-13T06:04:51.470Z,98203.25
2023-03-13T06:08:54.968Z,98223.78
2023-03-13T06:13:01.445Z,98226.50
2023-03-13T06:17:14.451Z,98209.28
2023-03-13T06:21:18.231Z,98220.84
2023-03-13T06:25:22.798Z,98230.06
2023-03-13T06:29:26.503Z,98226.88
2023-03-13T06:33:31.229Z,98208.16
2023-03-13T06:37:38.281Z,98215.47
2023-03-13T06:41:41.836Z,98215.19
2023-03-13T06:45:45.292Z,98212.00
2023-03-13T06:49:52.593Z,98234.31
2023-03-13T06:53:58.760Z,98222.31
2023-03-13T06:58:02.441Z,98218.66
2023-03-13T07:02:05.931Z,98219.22
2023-03-13T07:06:11.233Z,98219.06
2023-03-13T07:10:15.742Z,98213.50
2023-03-13T07:14:18.402Z,98215.34
2023-03-13T07:18:23.315Z,98213.28
2023-03-13T07:22:28.199Z,98214.56
2023-03-13T07:26:31.093Z,98225.13
2023-03-13T07:30:35.662Z,98231.53
2023-03-13T07:34:39.451Z,98234.34
2023-03-13T07:38:44.380Z,98236.75
2023-03-13T07:42:47.092Z,98224.34
2023-03-13T07:46:50.394Z,98219.03
2023-03-13T07:50:58.171Z,98220.81
2023-03-13T07:55:02.990Z,98197.66
2023-03-13T07:59:07.101Z,98203.31
2023-03-13T08:03:11.025Z,98206.88
2023-03-13T08:07:18.610Z,98198.88
2023-03-13T08:11:25.005Z,98208.13
2023-03-13T08:15:28.885Z,98203.50
2023-03-13T08:19:32.366Z,98205.72
2023-03-13T08:23:35.723Z,98207.03
2023-03-13T08:27:40.827Z,98172.34
2023-03-13T08:31:45.498Z,98216.28
2023-03-13T08:35:49.020Z,98206.28
2023-03-13T08:39:51.862Z,98201.78
2023-03-13T08:43:56.998Z,98196.69
2023-03-13T08:47:59.637Z,98194.03
2023-03-13T08:52:02.691Z,98190.13
2023-03-13T08:56:06.702Z,98168.03
2023-03-13T09:00:14.923Z,98176.31
2023-03-13T09:04:19.239Z,98166.44
2023-03-13T09:08:22.238Z,98163.88
2023-03-13T09:12:31.220Z,98155.16
2023-03-13T09:16:36.871Z,98155.16
2023-03-13T09:20:40.044Z,98150.22
2023-03-13T09:24:45.285Z,98144.50
2023-03-13T09:28:48.408Z,98137.06
2023-03-13T09:32:52.953Z,98141.59
2023-03-13T09:36:55.925Z,98154.50
2023-03-13T09:41:06.579Z,98119.16
2023-03-13T09:45:14.387Z,98134.44
2023-03-13T09:49:29.944Z,98126.28
2023-03-13T09:53:37.467Z,98113.25
2023-03-13T09:57:47.155Z,98110.09
2023-03-13T10:01:49.763Z,98107.44
2023-03-13T10:05:57.092Z,98099.91
2023-03-13T10:10:02.124Z,98085.75
2023-03-13T10:14:11.842Z,98078.00
2023-03-13T10:18:21.826Z,98074.16
2023-03-13T10:22:30.020Z,98065.78
2023-03-13T10:26:36.126Z,98061.97
2023-03-13T10:30:40.727Z,98054.06
2023-03-13T10:34:53.964Z,98034.50
2023-03-13T10:38:58.450Z,98017.75
2023-03-13T10:43:03.734Z,98017.19
2023-03-13T10:47:14.754Z,98004.69
2023-03-13T10:51:23.074Z,98008.19
2023-03-13T10:55:28.053Z,98014.88
2023-03-13T10:59:31.267Z,98012.28
2023-03-13T11:03:34.471Z,97991.47
2023-03-13T11:07:38.162Z,97977.97
2023-03-13T11:11:50.571Z,97983.88
2023-03-13T11:15:57.298Z,97978.78
2023-03-13T11:20:06.887Z,97960.34
2023-03-13T11:24:11.710Z,97940.16
2023-03-13T11:28:31.268Z,97938.66
2023-03-13T11:32:40.147Z,97937.97
2023-03-13T11:36:47.363Z,97902.47
2023-03-13T11:40:55.765Z,97925.72
2023-03-13T11:45:04.897Z,97918.75
2023-03-13T11:49:33.581Z,97920.31
2023-03-13T11:53:45.891Z,97920.84
2023-03-13T11:57:53.760Z,97901.50
2023-03-13T12:02:01.324Z,97895.91
2023-03-13T12:06:06.677Z,97895.25
2023-03-13T12:10:17.255Z,97885.66
2023-03-13T12:14:24.384Z,97877.84
2023-03-13T12:18:33.258Z,97851.47
2023-03-13T12:22:39.778Z,97851.34
2023-03-13T12:26:45.456Z,97828.19
2023-03-13T12:30:51.467Z,97834.97
2023-03-13T12:35:01.684Z,97811.13
2023-03-13T12:39:13.490Z,97810.25
2023-03-13T12:43:18.053Z,97792.81
2023-03-13T12:47:27.934Z,97782.00
2023-03-13T12:51:43.240Z,97764.09
2023-03-13T12:56:26.238Z,97764.25
2023-03-13T13:00:30.707Z,97752.34
2023-03-13T13:04:34.564Z,97723.09
2023-03-13T13:08:41.513Z,97703.06
2023-03-13T13:12:45.690Z,97702.25
2023-03-13T13:16:52.301Z,97696.50
2023-03-13T13:21:20.719Z,97686.25
2023-03-13T13:25:35.146Z,97670.06
2023-03-13T13:29:56.641Z,97667.84
2023-03-13T13:33:59.511Z,97646.41
2023-03-13T13:38:36.629Z,97641.41
2023-03-13T13:42:48.564Z,97619.66
2023-03-13T13:46:51.498Z,97618.19
2023-03-13T13:51:33.826Z,97594.91
2023-03-13T13:55:44.317Z,97575.91
2023-03-13T14:00:00.862Z,97581.28
2023-03-13T14:04:12.426Z,97561.81
2023-03-13T14:08:18.574Z,97533.63
2023-03-13T14:12:29.714Z,97514.75
2023-03-13T14:16:34.492Z,97525.91
2023-03-13T14:20:38.313Z,97632.59
2023-03-13T14:24:43.251Z,97711.69
2023-03-13T14:28:56.572Z,97712.66
2023-03-13T14:33:00.812Z,97683.47
2023-03-13T14:37:37.149Z,97673.56
2023-03-13T14:41:45.287Z,97650.56
2023-03-13T14:45:49.165Z,97635.16
2023-03-13T14:49:59.455Z,97608.84
2023-03-13T14:54:04.229Z,97628.47
2023-03-13T14:58:27.112Z,97605.59
2023-03-13T15:02:31.929Z,97582.41
2023-03-13T15:06:37.177Z,97574.69
2023-03-13T15:10:40.869Z,97569.06
2023-03-13T15:14:45.058Z,97564.63
2023-03-13T15:18:49.595Z,97550.94
2023-03-13T15:22:53.781Z,97544.94
2023-03-13T15:26:56.514Z,97520.78
2023-03-13T15:30:59.551Z,97535.97
2023-03-13T15:35:03.392Z,97521.75
2023-03-13T15:39:12.447Z,97525.53
2023-03-13T15:43:15.521Z,97514.75
2023-03-13T15:47:20.553Z,97513.34
2023-03-13T15:51:23.338Z,97494.31
2023-03-13T15:55:28.889Z,97476.25
2023-03-13T15:59:31.664Z,97481.97
2023-03-13T16:03:35.240Z,97475.25
2023-03-13T16:07:37.937Z,97479.03
2023-03-13T16:11:42.143Z,97472.09
2023-03-13T16:15:45.642Z,97485.47
2023-03-13T16:19:48.505Z,97462.94
2023-03-13T16:23:51.904Z,97466.91
2023-03-13T16:27:56.339Z,97472.34
2023-03-13T16:32:01.212Z,97466.00
2023-03-13T16:36:13.013Z,97448.25
2023-03-13T16:40:17.961Z,97427.72
2023-03-13T16:44:23.875Z,97414.66
2023-03-13T16:48:34.184Z,97404.41
2023-03-13T16:52:38.392Z,97411.22
2023-03-13T16:56:43.278Z,97394.59
2023-03-13T17:05:12.816Z,97458.53
2023-03-13T17:09:17.367Z,97470.19
2023-03-13T17:13:23.218Z,97460.28
2023-03-13T17:17:27.392Z,97453.38
2023-03-13T17:21:32.276Z,97435.34
2023-03-13T17:25:35.032Z,97437.44
2023-03-13T17:29:37.955Z,97437.00
2023-03-13T17:33:50.527Z,97440.81
2023-03-13T17:37:53.335Z,97476.75
2023-03-13T17:41:57.670Z,97502.84
2023-03-13T17:46:00.560Z,97496.78
2023-03-13T17:50:16.917Z,97539.66
2023-03-13T17:54:22.500Z,97515.34
2023-03-13T17:58:30.606Z,97510.22
2023-03-13T18:02:34.425Z,97507.84
2023-03-13T18:06:46.542Z,97497.50
2023-03-13T18:10:50.282Z,97507.91
2023-03-13T18:14:52.976Z,97489.28
2023-03-13T18:18:57.017Z,97481.38
2023-03-13T18:23:01.086Z,97466.72
2023-03-13T18:27:05.352Z,97466.38
2023-03-13T18:31:11.592Z,97505.00
2023-03-13T18:35:15.777Z,97478.78
2023-03-13T18:39:21.107Z,97451.69
2023-03-13T18:43:26.149Z,97423.19
2023-03-13T18:47:29.883Z,97430.41
2023-03-13T18:51:32.896Z,97447.78
2023-03-13T18:55:37.147Z,97416.38
2023-03-13T18:59:41.348Z,97404.47
2023-03-13T19:03:45.708Z,97351.88
2023-03-13T19:07:48.703Z,97317.28
2023-03-13T19:11:53.059Z,97389.84
2023-03-13T19:15:56.386Z,97377.63
2023-03-13T19:19:59.535Z,97364.06
2023-03-13T19:24:02.229Z,97388.56
2023-03-13T19:28:10.923Z,97360.22
2023-03-13T19:32:15.299Z,97363.22
2023-03-13T19:36:19.584Z,97353.81
2023-03-13T19:40:24.035Z,97375.28
2023-03-13T19:44:28.430Z,97358.56
2023-03-13T19:48:31.349Z,97335.69
2023-03-13T19:52:34.500Z,97358.06
2023-03-13T19:56:39.498Z,97371.34
2023-03-13T20:00:43.931Z,97354.06
2023-03-13T20:04:46.758Z,97364.72
2023-03-13T20:08:50.294Z,97367.91
2023-03-13T20:12:53.632Z,97342.66
2023-03-13T20:16:57.912Z,97336.69
2023-03-13T20:21:00.824Z,97331.22
2023-03-13T20:25:04.057Z,97322.78
2023-03-13T20:29:07.155Z,97321.59
2023-03-13T20:33:12.146Z,97321.69
2023-03-13T20:37:14.930Z,97325.94
2023-03-13T20:41:21.163Z,97302.00
2023-03-13T20:45:23.890Z,97284.44
2023-03-13T20:49:28.644Z,97273.28
2023-03-13T20:53:31.542Z,97304.81
2023-03-13T20:57:34.164Z,97313.78
2023-03-13T21:01:37.135Z,97327.41
2023-03-13T21:05:42.315Z,97327.75
2023-03-13T21:09:45.123Z,97338.63
2023-03-13T21:13:48.526Z,97324.59
2023-03-13T21:17:53.876Z,97347.50
2023-03-13T21:21:58.074Z,97351.53
2023-03-13T21:26:01.737Z,97341.38
2023-03-13T21:30:05.932Z,97351.13
2023-03-13T21:34:10.943Z,97371.22
2023-03-13T21:38:16.352Z,97364.88
2023-03-13T21:42:19.463Z,97360.38
2023-03-13T21:46:23.901Z,97374.06
2023-03-13T21:50:26.568Z,97361.72
2023-03-13T21:54:33.293Z,97351.03
2023-03-13T21:58:37.136Z,97365.56
2023-03-13T22:02:40.716Z,97387.09
2023-03-13T22:06:43.367Z,97406.91
2023-03-13T22:10:51.609Z,97399.31
2023-03-13T22:14:57.428Z,97366.00
2023-03-13T22:19:00.629Z,97343.50
2023-03-13T22:23:04.687Z,97347.19
2023-03-13T22:27:10.391Z,97335.78
2023-03-13T22:31:13.922Z,97331.16
2023-03-13T22:35:16.873Z,97350.28
2023-03-13T22:39:19.700Z,97369.44
2023-03-13T22:43:23.788Z,97344.84
2023-03-13T22:47:26.751Z,97338.00
2023-03-13T22:51:29.456Z,97334.66
2023-03-13T22:55:33.946Z,97310.22
2023-03-13T22:59:38.650Z,97306.72
2023-03-13T23:03:43.083Z,97306.63
2023-03-13T23:07:47.073Z,97319.25
2023-03-13T23:11:51.045Z,97338.38
2023-03-13T23:15:57.755Z,97341.78
2023-03-13T23:20:01.600Z,97344.94
2023-03-13T23:24:05.062Z,97349.34
2023-03-13T23:28:09.014Z,97358.28
2023-03-13T23:32:14.388Z,97368.53
2023-03-13T23:36:23.189Z,97369.50
2023-03-13T23:40:28.451Z,97368.25
2023-03-13T23:44:32.983Z,97365.53
2023-03-13T23:48:37.436Z,97376.88
2023-03-13T23:52:41.334Z,97376.59
2023-03-13T23:56:45.480Z,97363.13
